sensor_id;sensor_type;location;lat;lon;timestamp;temperature;humidity
9103;DHT22;4587;51.434;6.788;2023-03-29T00:01:08;7.10;99.90
9103;DHT22;4587;51.434;6.788;2023-03-29T00:03:35;7.00;99.90
9103;DHT22;4587;51.434;6.788;2023-03-29T00:06:02;6.90;99.90
9103;DHT22;4587;51.434;6.788;2023-03-29T00:08:31;7.00;99.90
9103;DHT22;4587;51.434;6.788;2023-03-29T00:11:02;7.00;99.90
9103;DHT22;4587;51.434;6.788;2023-03-29T00:13:28;7.10;99.90
9103;DHT22;4587;51.434;6.788;2023-03-29T00:15:54;7.10;99.90
9103;DHT22;4587;51.434;6.788;2023-03-29T00:18:21;7.10;99.90
9103;DHT22;4587;51.434;6.788;2023-03-29T00:20:53;7.00;99.90
9103;DHT22;4587;51.434;6.788;2023-03-29T00:23:19;7.10;99.90
9103;DHT22;4587;51.434;6.788;2023-03-29T00:25:47;7.10;99.90
9103;DHT22;4587;51.434;6.788;2023-03-29T00:28:12;7.10;99.90
9103;DHT22;4587;51.434;6.788;2023-03-29T00:30:39;7.20;99.90
9103;DHT22;4587;51.434;6.788;2023-03-29T00:33:04;7.10;99.90
9103;DHT22;4587;51.434;6.788;2023-03-29T00:35:30;7.00;99.90
9103;DHT22;4587;51.434;6.788;2023-03-29T00:37:55;6.90;99.90
9103;DHT22;4587;51.434;6.788;2023-03-29T00:40:22;7.00;99.90
9103;DHT22;4587;51.434;6.788;2023-03-29T00:42:47;7.10;99.90
9103;DHT22;4587;51.434;6.788;2023-03-29T00:50:19;7.30;99.90
9103;DHT22;4587;51.434;6.788;2023-03-29T00:52:57;7.20;99.90
9103;DHT22;4587;51.434;6.788;2023-03-29T00:55:27;7.20;99.90
9103;DHT22;4587;51.434;6.788;2023-03-29T00:57:55;7.10;99.90
9103;DHT22;4587;51.434;6.788;2023-03-29T01:00:25;7.10;99.90
9103;DHT22;4587;51.434;6.788;2023-03-29T01:02:54;7.10;99.90
9103;DHT22;4587;51.434;6.788;2023-03-29T01:05:37;7.10;99.90
9103;DHT22;4587;51.434;6.788;2023-03-29T01:08:17;7.00;99.90
9103;DHT22;4587;51.434;6.788;2023-03-29T01:11:03;7.10;99.90
9103;DHT22;4587;51.434;6.788;2023-03-29T01:13:45;7.20;99.90
9103;DHT22;4587;51.434;6.788;2023-03-29T01:16:12;7.20;99.90
9103;DHT22;4587;51.434;6.788;2023-03-29T01:18:38;7.20;99.90
9103;DHT22;4587;51.434;6.788;2023-03-29T01:21:13;7.20;99.90
9103;DHT22;4587;51.434;6.788;2023-03-29T01:26:52;7.10;99.90
9103;DHT22;4587;51.434;6.788;2023-03-29T01:29:24;7.10;99.90
9103;DHT22;4587;51.434;6.788;2023-03-29T01:31:55;7.10;99.90
9103;DHT22;4587;51.434;6.788;2023-03-29T01:37:28;7.10;99.90
9103;DHT22;4587;51.434;6.788;2023-03-29T01:39:57;7.10;99.90
9103;DHT22;4587;51.434;6.788;2023-03-29T01:43:17;7.10;99.90
9103;DHT22;4587;51.434;6.788;2023-03-29T01:48:24;7.20;99.90
9103;DHT22;4587;51.434;6.788;2023-03-29T01:50:54;7.20;99.90
9103;DHT22;4587;51.434;6.788;2023-03-29T01:53:34;7.10;99.90
9103;DHT22;4587;51.434;6.788;2023-03-29T01:56:15;7.10;99.90
9103;DHT22;4587;51.434;6.788;2023-03-29T01:58:49;7.20;99.90
9103;DHT22;4587;51.434;6.788;2023-03-29T02:01:20;7.20;99.90
9103;DHT22;4587;51.434;6.788;2023-03-29T02:03:49;7.20;99.90
9103;DHT22;4587;51.434;6.788;2023-03-29T02:06:21;7.20;99.90
9103;DHT22;4587;51.434;6.788;2023-03-29T02:08:48;7.30;99.90
9103;DHT22;4587;51.434;6.788;2023-03-29T02:11:15;7.30;99.90
9103;DHT22;4587;51.434;6.788;2023-03-29T02:13:41;7.30;99.90
9103;DHT22;4587;51.434;6.788;2023-03-29T02:16:08;7.20;99.90
9103;DHT22;4587;51.434;6.788;2023-03-29T02:18:37;7.30;99.90
9103;DHT22;4587;51.434;6.788;2023-03-29T02:21:04;7.20;99.90
9103;DHT22;4587;51.434;6.788;2023-03-29T02:23:33;7.20;99.90
9103;DHT22;4587;51.434;6.788;2023-03-29T02:26:00;7.30;99.90
9103;DHT22;4587;51.434;6.788;2023-03-29T02:28:27;7.40;99.90
9103;DHT22;4587;51.434;6.788;2023-03-29T02:31:07;7.40;99.90
9103;DHT22;4587;51.434;6.788;2023-03-29T02:34:03;7.40;99.90
9103;DHT22;4587;51.434;6.788;2023-03-29T02:37:00;7.40;99.90
9103;DHT22;4587;51.434;6.788;2023-03-29T02:39:28;7.40;99.90
9103;DHT22;4587;51.434;6.788;2023-03-29T02:41:56;7.30;99.90
9103;DHT22;4587;51.434;6.788;2023-03-29T02:44:27;7.40;99.90
9103;DHT22;4587;51.434;6.788;2023-03-29T02:47:17;7.30;99.90
9103;DHT22;4587;51.434;6.788;2023-03-29T02:49:44;7.40;99.90
9103;DHT22;4587;51.434;6.788;2023-03-29T02:52:14;7.30;99.90
9103;DHT22;4587;51.434;6.788;2023-03-29T02:54:41;7.30;99.90
9103;DHT22;4587;51.434;6.788;2023-03-29T02:57:10;7.30;99.90
9103;DHT22;4587;51.434;6.788;2023-03-29T02:59:36;7.30;99.90
9103;DHT22;4587;51.434;6.788;2023-03-29T03:02:03;7.30;99.90
9103;DHT22;4587;51.434;6.788;2023-03-29T03:04:30;7.40;99.90
9103;DHT22;4587;51.434;6.788;2023-03-29T03:06:56;7.50;99.90
9103;DHT22;4587;51.434;6.788;2023-03-29T03:09:22;7.50;99.90
9103;DHT22;4587;51.434;6.788;2023-03-29T03:11:47;7.50;99.90
9103;DHT22;4587;51.434;6.788;2023-03-29T03:14:13;7.70;99.90
9103;DHT22;4587;51.434;6.788;2023-03-29T03:16:39;7.60;99.90
9103;DHT22;4587;51.434;6.788;2023-03-29T03:19:04;7.60;99.90
9103;DHT22;4587;51.434;6.788;2023-03-29T03:21:30;7.70;99.90
9103;DHT22;4587;51.434;6.788;2023-03-29T03:23:56;7.60;99.90
9103;DHT22;4587;51.434;6.788;2023-03-29T03:26:22;7.60;99.90
9103;DHT22;4587;51.434;6.788;2023-03-29T03:28:49;7.70;99.90
9103;DHT22;4587;51.434;6.788;2023-03-29T03:31:15;7.80;99.90
9103;DHT22;4587;51.434;6.788;2023-03-29T03:33:41;7.70;99.90
9103;DHT22;4587;51.434;6.788;2023-03-29T03:36:08;7.80;99.90
9103;DHT22;4587;51.434;6.788;2023-03-29T03:38:35;7.70;99.90
9103;DHT22;4587;51.434;6.788;2023-03-29T03:41:01;7.70;99.90
9103;DHT22;4587;51.434;6.788;2023-03-29T03:43:27;7.70;99.90
9103;DHT22;4587;51.434;6.788;2023-03-29T03:45:54;7.60;99.90
9103;DHT22;4587;51.434;6.788;2023-03-29T03:48:20;7.60;99.90
9103;DHT22;4587;51.434;6.788;2023-03-29T03:50:50;7.70;99.90
9103;DHT22;4587;51.434;6.788;2023-03-29T03:53:16;7.70;99.90
9103;DHT22;4587;51.434;6.788;2023-03-29T03:55:50;7.70;99.90
9103;DHT22;4587;51.434;6.788;2023-03-29T03:58:17;7.70;99.90
9103;DHT22;4587;51.434;6.788;2023-03-29T04:00:43;7.70;99.90
9103;DHT22;4587;51.434;6.788;2023-03-29T04:03:09;7.90;99.90
9103;DHT22;4587;51.434;6.788;2023-03-29T04:05:43;7.80;99.90
9103;DHT22;4587;51.434;6.788;2023-03-29T04:08:10;7.90;99.90
9103;DHT22;4587;51.434;6.788;2023-03-29T04:10:36;7.90;99.90
9103;DHT22;4587;51.434;6.788;2023-03-29T04:13:02;7.90;99.90
9103;DHT22;4587;51.434;6.788;2023-03-29T04:15:30;7.80;99.90
9103;DHT22;4587;51.434;6.788;2023-03-29T04:17:56;7.90;99.90
9103;DHT22;4587;51.434;6.788;2023-03-29T04:20:21;8.00;99.90
9103;DHT22;4587;51.434;6.788;2023-03-29T04:22:47;7.90;99.90
9103;DHT22;4587;51.434;6.788;2023-03-29T04:25:13;7.80;99.90
9103;DHT22;4587;51.434;6.788;2023-03-29T04:27:39;7.90;99.90
9103;DHT22;4587;51.434;6.788;2023-03-29T04:30:05;7.90;99.90
9103;DHT22;4587;51.434;6.788;2023-03-29T04:32:31;7.90;99.90
9103;DHT22;4587;51.434;6.788;2023-03-29T04:34:57;7.90;99.90
9103;DHT22;4587;51.434;6.788;2023-03-29T04:37:23;7.90;99.90
9103;DHT22;4587;51.434;6.788;2023-03-29T04:39:49;7.80;99.90
9103;DHT22;4587;51.434;6.788;2023-03-29T04:42:15;7.80;99.90
9103;DHT22;4587;51.434;6.788;2023-03-29T04:44:41;7.80;99.90
9103;DHT22;4587;51.434;6.788;2023-03-29T04:47:08;7.70;99.90
9103;DHT22;4587;51.434;6.788;2023-03-29T04:49:36;7.80;99.90
9103;DHT22;4587;51.434;6.788;2023-03-29T04:52:02;7.70;99.90
9103;DHT22;4587;51.434;6.788;2023-03-29T04:54:27;7.60;99.90
9103;DHT22;4587;51.434;6.788;2023-03-29T04:56:53;7.70;99.90
9103;DHT22;4587;51.434;6.788;2023-03-29T04:59:18;7.60;99.90
9103;DHT22;4587;51.434;6.788;2023-03-29T05:01:44;7.60;99.90
9103;DHT22;4587;51.434;6.788;2023-03-29T05:04:10;7.50;99.90
9103;DHT22;4587;51.434;6.788;2023-03-29T05:06:36;7.40;99.90
9103;DHT22;4587;51.434;6.788;2023-03-29T05:09:01;7.40;99.90
9103;DHT22;4587;51.434;6.788;2023-03-29T05:11:29;7.40;99.90
9103;DHT22;4587;51.434;6.788;2023-03-29T05:13:55;7.40;99.90
9103;DHT22;4587;51.434;6.788;2023-03-29T05:16:27;7.40;99.90
9103;DHT22;4587;51.434;6.788;2023-03-29T05:18:55;7.40;99.90
9103;DHT22;4587;51.434;6.788;2023-03-29T05:21:20;7.40;99.90
9103;DHT22;4587;51.434;6.788;2023-03-29T05:23:46;7.40;99.90
9103;DHT22;4587;51.434;6.788;2023-03-29T05:26:12;7.50;99.90
9103;DHT22;4587;51.434;6.788;2023-03-29T05:28:40;7.40;99.90
9103;DHT22;4587;51.434;6.788;2023-03-29T05:31:06;7.40;99.90
9103;DHT22;4587;51.434;6.788;2023-03-29T05:33:32;7.50;99.90
9103;DHT22;4587;51.434;6.788;2023-03-29T05:36:03;7.40;99.90
9103;DHT22;4587;51.434;6.788;2023-03-29T05:38:30;7.40;99.90
9103;DHT22;4587;51.434;6.788;2023-03-29T05:40:57;7.40;99.90
9103;DHT22;4587;51.434;6.788;2023-03-29T05:43:23;7.40;99.90
9103;DHT22;4587;51.434;6.788;2023-03-29T05:45:48;7.50;99.90
9103;DHT22;4587;51.434;6.788;2023-03-29T05:48:14;7.60;99.90
9103;DHT22;4587;51.434;6.788;2023-03-29T05:50:39;7.70;99.90
9103;DHT22;4587;51.434;6.788;2023-03-29T05:53:05;7.70;99.90
9103;DHT22;4587;51.434;6.788;2023-03-29T05:55:31;7.60;99.90
9103;DHT22;4587;51.434;6.788;2023-03-29T05:57:56;7.60;99.90
9103;DHT22;4587;51.434;6.788;2023-03-29T06:00:22;7.60;99.90
9103;DHT22;4587;51.434;6.788;2023-03-29T06:02:51;7.50;99.90
9103;DHT22;4587;51.434;6.788;2023-03-29T06:05:18;7.60;99.90
9103;DHT22;4587;51.434;6.788;2023-03-29T06:07:44;7.70;99.90
9103;DHT22;4587;51.434;6.788;2023-03-29T06:10:11;7.70;99.90
9103;DHT22;4587;51.434;6.788;2023-03-29T06:12:36;7.60;99.90
9103;DHT22;4587;51.434;6.788;2023-03-29T06:15:03;7.60;99.90
9103;DHT22;4587;51.434;6.788;2023-03-29T06:17:30;7.60;99.90
9103;DHT22;4587;51.434;6.788;2023-03-29T06:19:58;7.70;99.90
9103;DHT22;4587;51.434;6.788;2023-03-29T06:22:23;7.80;99.90
9103;DHT22;4587;51.434;6.788;2023-03-29T06:24:49;8.00;99.90
9103;DHT22;4587;51.434;6.788;2023-03-29T06:27:15;8.00;99.90
9103;DHT22;4587;51.434;6.788;2023-03-29T06:29:41;8.00;99.90
9103;DHT22;4587;51.434;6.788;2023-03-29T06:32:06;8.00;99.90
9103;DHT22;4587;51.434;6.788;2023-03-29T06:34:32;8.00;99.90
9103;DHT22;4587;51.434;6.788;2023-03-29T06:36:58;8.00;99.90
9103;DHT22;4587;51.434;6.788;2023-03-29T06:39:24;8.10;99.90
9103;DHT22;4587;51.434;6.788;2023-03-29T06:41:51;8.10;99.90
9103;DHT22;4587;51.434;6.788;2023-03-29T06:44:16;8.10;99.90
9103;DHT22;4587;51.434;6.788;2023-03-29T06:46:42;8.10;99.90
9103;DHT22;4587;51.434;6.788;2023-03-29T06:49:08;8.10;99.90
9103;DHT22;4587;51.434;6.788;2023-03-29T06:51:34;8.20;99.90
9103;DHT22;4587;51.434;6.788;2023-03-29T06:53:59;8.30;99.90
9103;DHT22;4587;51.434;6.788;2023-03-29T06:56:25;8.30;99.90
9103;DHT22;4587;51.434;6.788;2023-03-29T06:58:51;8.30;99.90
9103;DHT22;4587;51.434;6.788;2023-03-29T07:01:16;8.30;99.90
9103;DHT22;4587;51.434;6.788;2023-03-29T07:03:42;8.30;99.90
9103;DHT22;4587;51.434;6.788;2023-03-29T07:06:09;8.30;99.90
9103;DHT22;4587;51.434;6.788;2023-03-29T07:08:40;8.50;99.90
9103;DHT22;4587;51.434;6.788;2023-03-29T07:11:12;8.50;99.90
9103;DHT22;4587;51.434;6.788;2023-03-29T07:13:42;8.50;99.90
9103;DHT22;4587;51.434;6.788;2023-03-29T07:16:09;8.60;99.90
9103;DHT22;4587;51.434;6.788;2023-03-29T07:18:41;8.60;99.90
9103;DHT22;4587;51.434;6.788;2023-03-29T07:21:09;8.60;99.90
9103;DHT22;4587;51.434;6.788;2023-03-29T07:23:35;8.60;99.90
9103;DHT22;4587;51.434;6.788;2023-03-29T07:26:02;8.60;99.90
9103;DHT22;4587;51.434;6.788;2023-03-29T07:28:28;8.70;99.90
9103;DHT22;4587;51.434;6.788;2023-03-29T07:31:04;8.70;99.90
9103;DHT22;4587;51.434;6.788;2023-03-29T07:33:31;8.70;99.90
9103;DHT22;4587;51.434;6.788;2023-03-29T07:35:57;8.70;99.90
9103;DHT22;4587;51.434;6.788;2023-03-29T07:38:23;8.70;99.90
9103;DHT22;4587;51.434;6.788;2023-03-29T07:40:49;8.70;99.90
9103;DHT22;4587;51.434;6.788;2023-03-29T07:43:15;8.80;99.90
9103;DHT22;4587;51.434;6.788;2023-03-29T07:45:42;8.80;99.90
9103;DHT22;4587;51.434;6.788;2023-03-29T07:48:08;8.80;99.90
9103;DHT22;4587;51.434;6.788;2023-03-29T07:50:34;8.80;99.90
9103;DHT22;4587;51.434;6.788;2023-03-29T07:53:00;8.90;99.90
9103;DHT22;4587;51.434;6.788;2023-03-29T07:55:26;9.10;99.90
9103;DHT22;4587;51.434;6.788;2023-03-29T07:57:52;9.20;99.90
9103;DHT22;4587;51.434;6.788;2023-03-29T08:00:18;9.30;99.90
9103;DHT22;4587;51.434;6.788;2023-03-29T08:02:46;9.40;99.90
9103;DHT22;4587;51.434;6.788;2023-03-29T08:05:13;9.50;99.90
9103;DHT22;4587;51.434;6.788;2023-03-29T08:07:40;9.50;99.90
9103;DHT22;4587;51.434;6.788;2023-03-29T08:10:08;9.60;99.90
9103;DHT22;4587;51.434;6.788;2023-03-29T08:12:34;9.60;99.90
9103;DHT22;4587;51.434;6.788;2023-03-29T08:15:00;9.50;99.90
9103;DHT22;4587;51.434;6.788;2023-03-29T08:17:26;9.50;99.90
9103;DHT22;4587;51.434;6.788;2023-03-29T08:19:51;9.60;99.90
9103;DHT22;4587;51.434;6.788;2023-03-29T08:22:17;9.60;99.90
9103;DHT22;4587;51.434;6.788;2023-03-29T08:24:43;9.60;99.90
9103;DHT22;4587;51.434;6.788;2023-03-29T08:27:08;9.60;99.90
9103;DHT22;4587;51.434;6.788;2023-03-29T08:29:34;9.50;99.90
9103;DHT22;4587;51.434;6.788;2023-03-29T08:31:59;9.60;99.90
9103;DHT22;4587;51.434;6.788;2023-03-29T08:34:25;9.50;99.90
9103;DHT22;4587;51.434;6.788;2023-03-29T08:36:50;9.60;99.90
9103;DHT22;4587;51.434;6.788;2023-03-29T08:39:18;9.60;99.90
9103;DHT22;4587;51.434;6.788;2023-03-29T08:50:00;9.90;99.90
9103;DHT22;4587;51.434;6.788;2023-03-29T08:52:39;9.90;99.90
9103;DHT22;4587;51.434;6.788;2023-03-29T08:55:11;10.10;99.90
9103;DHT22;4587;51.434;6.788;2023-03-29T08:57:44;10.30;99.90
9103;DHT22;4587;51.434;6.788;2023-03-29T09:00:45;10.30;99.90
9103;DHT22;4587;51.434;6.788;2023-03-29T09:03:27;10.50;99.90
9103;DHT22;4587;51.434;6.788;2023-03-29T09:05:58;10.70;99.90
9103;DHT22;4587;51.434;6.788;2023-03-29T09:08:25;10.70;99.90
9103;DHT22;4587;51.434;6.788;2023-03-29T09:19:22;10.90;99.90
9103;DHT22;4587;51.434;6.788;2023-03-29T09:27:09;11.00;99.90
9103;DHT22;4587;51.434;6.788;2023-03-29T09:32:20;11.20;99.90
9103;DHT22;4587;51.434;6.788;2023-03-29T09:35:00;11.30;99.90
9103;DHT22;4587;51.434;6.788;2023-03-29T09:37:36;11.50;99.90
9103;DHT22;4587;51.434;6.788;2023-03-29T09:40:10;11.60;99.90
9103;DHT22;4587;51.434;6.788;2023-03-29T09:42:37;11.60;99.90
9103;DHT22;4587;51.434;6.788;2023-03-29T09:45:04;11.60;99.90
9103;DHT22;4587;51.434;6.788;2023-03-29T09:47:53;11.60;99.90
9103;DHT22;4587;51.434;6.788;2023-03-29T09:50:28;11.70;99.90
9103;DHT22;4587;51.434;6.788;2023-03-29T09:52:55;11.80;99.90
9103;DHT22;4587;51.434;6.788;2023-03-29T09:55:25;12.00;99.90
9103;DHT22;4587;51.434;6.788;2023-03-29T09:57:52;12.20;99.90
9103;DHT22;4587;51.434;6.788;2023-03-29T10:00:18;12.40;99.90
9103;DHT22;4587;51.434;6.788;2023-03-29T10:02:56;12.60;99.90
9103;DHT22;4587;51.434;6.788;2023-03-29T10:05:23;12.60;99.90
9103;DHT22;4587;51.434;6.788;2023-03-29T10:07:51;12.80;99.90
9103;DHT22;4587;51.434;6.788;2023-03-29T10:10:26;12.90;99.90
9103;DHT22;4587;51.434;6.788;2023-03-29T10:12:56;13.10;99.90
9103;DHT22;4587;51.434;6.788;2023-03-29T10:15:25;13.40;99.90
9103;DHT22;4587;51.434;6.788;2023-03-29T10:18:00;13.60;99.90
9103;DHT22;4587;51.434;6.788;2023-03-29T10:20:27;13.90;99.90
9103;DHT22;4587;51.434;6.788;2023-03-29T10:22:57;14.00;99.90
9103;DHT22;4587;51.434;6.788;2023-03-29T10:25:27;14.00;99.90
9103;DHT22;4587;51.434;6.788;2023-03-29T10:27:57;14.20;99.90
9103;DHT22;4587;51.434;6.788;2023-03-29T10:30:27;14.30;99.90
9103;DHT22;4587;51.434;6.788;2023-03-29T10:32:56;14.40;99.90
9103;DHT22;4587;51.434;6.788;2023-03-29T10:35:28;14.50;99.90
9103;DHT22;4587;51.434;6.788;2023-03-29T10:37:56;14.50;99.90
9103;DHT22;4587;51.434;6.788;2023-03-29T10:40:31;14.60;99.90
9103;DHT22;4587;51.434;6.788;2023-03-29T10:43:13;14.70;99.90
9103;DHT22;4587;51.434;6.788;2023-03-29T10:45:48;14.90;99.90
9103;DHT22;4587;51.434;6.788;2023-03-29T10:48:16;15.00;99.90
9103;DHT22;4587;51.434;6.788;2023-03-29T10:50:46;15.10;99.90
9103;DHT22;4587;51.434;6.788;2023-03-29T10:53:18;14.90;99.90
9103;DHT22;4587;51.434;6.788;2023-03-29T10:56:01;15.00;99.90
9103;DHT22;4587;51.434;6.788;2023-03-29T10:58:56;15.10;99.90
9103;DHT22;4587;51.434;6.788;2023-03-29T11:12:06;15.40;99.90
9103;DHT22;4587;51.434;6.788;2023-03-29T11:14:53;15.30;99.90
9103;DHT22;4587;51.434;6.788;2023-03-29T11:17:41;15.20;99.90
9103;DHT22;4587;51.434;6.788;2023-03-29T11:20:40;15.20;99.90
9103;DHT22;4587;51.434;6.788;2023-03-29T11:25:55;15.10;99.90
9103;DHT22;4587;51.434;6.788;2023-03-29T11:28:40;15.20;99.90
9103;DHT22;4587;51.434;6.788;2023-03-29T11:31:55;15.10;99.90
9103;DHT22;4587;51.434;6.788;2023-03-29T11:34:42;15.00;99.90
9103;DHT22;4587;51.434;6.788;2023-03-29T11:37:23;14.90;99.90
9103;DHT22;4587;51.434;6.788;2023-03-29T11:40:15;14.70;99.90
9103;DHT22;4587;51.434;6.788;2023-03-29T11:42:47;14.70;99.90
9103;DHT22;4587;51.434;6.788;2023-03-29T11:45:21;14.60;99.90
9103;DHT22;4587;51.434;6.788;2023-03-29T11:47:50;14.70;99.90
9103;DHT22;4587;51.434;6.788;2023-03-29T11:50:53;14.90;99.90
9103;DHT22;4587;51.434;6.788;2023-03-29T11:56:46;15.30;99.90
9103;DHT22;4587;51.434;6.788;2023-03-29T11:59:39;15.40;99.90
9103;DHT22;4587;51.434;6.788;2023-03-29T12:02:33;15.40;99.90
9103;DHT22;4587;51.434;6.788;2023-03-29T12:05:06;15.30;99.90
9103;DHT22;4587;51.434;6.788;2023-03-29T12:07:44;15.40;99.90
9103;DHT22;4587;51.434;6.788;2023-03-29T12:10:22;15.30;99.90
9103;DHT22;4587;51.434;6.788;2023-03-29T12:13:04;15.30;99.90
9103;DHT22;4587;51.434;6.788;2023-03-29T12:15:40;15.30;99.90
9103;DHT22;4587;51.434;6.788;2023-03-29T12:18:41;15.40;99.90
9103;DHT22;4587;51.434;6.788;2023-03-29T12:21:15;15.40;99.90
9103;DHT22;4587;51.434;6.788;2023-03-29T12:23:43;15.30;99.90
9103;DHT22;4587;51.434;6.788;2023-03-29T12:29:06;15.30;99.90
9103;DHT22;4587;51.434;6.788;2023-03-29T12:31:49;15.30;99.90
9103;DHT22;4587;51.434;6.788;2023-03-29T12:34:23;15.40;99.90
9103;DHT22;4587;51.434;6.788;2023-03-29T12:39:31;15.80;99.90
9103;DHT22;4587;51.434;6.788;2023-03-29T12:42:26;15.90;99.90
9103;DHT22;4587;51.434;6.788;2023-03-29T12:44:58;16.00;99.90
9103;DHT22;4587;51.434;6.788;2023-03-29T12:47:30;16.00;99.90
9103;DHT22;4587;51.434;6.788;2023-03-29T12:49:57;16.00;99.90
9103;DHT22;4587;51.434;6.788;2023-03-29T12:52:30;16.10;99.90
9103;DHT22;4587;51.434;6.788;2023-03-29T12:54:58;16.10;99.90
9103;DHT22;4587;51.434;6.788;2023-03-29T12:57:44;16.20;99.90
9103;DHT22;4587;51.434;6.788;2023-03-29T13:00:21;16.30;99.90
9103;DHT22;4587;51.434;6.788;2023-03-29T13:03:17;16.30;99.90
9103;DHT22;4587;51.434;6.788;2023-03-29T13:05:44;16.40;99.90
9103;DHT22;4587;51.434;6.788;2023-03-29T13:08:34;16.40;99.90
9103;DHT22;4587;51.434;6.788;2023-03-29T13:11:01;16.40;99.90
9103;DHT22;4587;51.434;6.788;2023-03-29T13:13:35;16.40;99.90
9103;DHT22;4587;51.434;6.788;2023-03-29T13:16:16;16.30;99.90
9103;DHT22;4587;51.434;6.788;2023-03-29T13:19:46;16.30;99.90
9103;DHT22;4587;51.434;6.788;2023-03-29T13:21:59;16.10;99.90
9103;DHT22;4587;51.434;6.788;2023-03-29T13:27:15;16.20;99.90
9103;DHT22;4587;51.434;6.788;2023-03-29T13:32:54;16.50;99.90
9103;DHT22;4587;51.434;6.788;2023-03-29T13:38:15;16.60;99.90
9103;DHT22;4587;51.434;6.788;2023-03-29T13:41:05;16.60;99.90
9103;DHT22;4587;51.434;6.788;2023-03-29T13:48:29;16.70;99.90
9103;DHT22;4587;51.434;6.788;2023-03-29T13:50:55;16.70;99.90
9103;DHT22;4587;51.434;6.788;2023-03-29T13:53:31;16.70;99.90
9103;DHT22;4587;51.434;6.788;2023-03-29T13:55:59;16.60;99.90
9103;DHT22;4587;51.434;6.788;2023-03-29T13:58:46;16.60;99.90
9103;DHT22;4587;51.434;6.788;2023-03-29T14:01:38;16.50;99.90
9103;DHT22;4587;51.434;6.788;2023-03-29T14:04:13;16.50;99.90
9103;DHT22;4587;51.434;6.788;2023-03-29T14:06:44;16.50;99.90
9103;DHT22;4587;51.434;6.788;2023-03-29T14:09:13;16.50;99.90
9103;DHT22;4587;51.434;6.788;2023-03-29T14:11:43;16.50;99.90
9103;DHT22;4587;51.434;6.788;2023-03-29T14:14:10;16.50;99.90
9103;DHT22;4587;51.434;6.788;2023-03-29T14:16:37;16.40;99.90
9103;DHT22;4587;51.434;6.788;2023-03-29T14:21:49;16.40;99.90
9103;DHT22;4587;51.434;6.788;2023-03-29T14:24:24;16.40;99.90
9103;DHT22;4587;51.434;6.788;2023-03-29T14:26:52;16.40;99.90
9103;DHT22;4587;51.434;6.788;2023-03-29T14:29:18;16.40;99.90
9103;DHT22;4587;51.434;6.788;2023-03-29T14:31:43;16.50;99.90
9103;DHT22;4587;51.434;6.788;2023-03-29T14:34:14;16.50;99.90
9103;DHT22;4587;51.434;6.788;2023-03-29T14:36:42;16.50;99.90
9103;DHT22;4587;51.434;6.788;2023-03-29T14:39:27;16.50;99.90
9103;DHT22;4587;51.434;6.788;2023-03-29T14:41:56;16.60;99.90
9103;DHT22;4587;51.434;6.788;2023-03-29T14:44:26;16.60;99.90
9103;DHT22;4587;51.434;6.788;2023-03-29T14:46:53;16.60;99.90
9103;DHT22;4587;51.434;6.788;2023-03-29T14:49:21;16.60;99.90
9103;DHT22;4587;51.434;6.788;2023-03-29T14:51:47;16.60;99.90
9103;DHT22;4587;51.434;6.788;2023-03-29T14:54:34;16.60;99.90
9103;DHT22;4587;51.434;6.788;2023-03-29T14:57:03;16.60;99.90
9103;DHT22;4587;51.434;6.788;2023-03-29T14:59:35;16.60;99.90
9103;DHT22;4587;51.434;6.788;2023-03-29T15:02:02;16.60;99.90
9103;DHT22;4587;51.434;6.788;2023-03-29T15:04:32;16.60;99.90
9103;DHT22;4587;51.434;6.788;2023-03-29T15:06:58;16.50;99.90
9103;DHT22;4587;51.434;6.788;2023-03-29T15:09:33;16.60;99.90
9103;DHT22;4587;51.434;6.788;2023-03-29T15:12:01;16.60;99.90
9103;DHT22;4587;51.434;6.788;2023-03-29T15:14:30;16.60;99.90
9103;DHT22;4587;51.434;6.788;2023-03-29T15:17:03;16.60;99.90
9103;DHT22;4587;51.434;6.788;2023-03-29T15:19:29;16.60;99.90
9103;DHT22;4587;51.434;6.788;2023-03-29T15:21:56;16.60;99.90
9103;DHT22;4587;51.434;6.788;2023-03-29T15:24:27;16.60;99.90
9103;DHT22;4587;51.434;6.788;2023-03-29T15:27:20;16.60;99.90
9103;DHT22;4587;51.434;6.788;2023-03-29T15:29:45;16.50;99.90
9103;DHT22;4587;51.434;6.788;2023-03-29T15:32:32;16.50;99.90
9103;DHT22;4587;51.434;6.788;2023-03-29T15:34:59;16.50;99.90
9103;DHT22;4587;51.434;6.788;2023-03-29T15:37:26;16.60;99.90
9103;DHT22;4587;51.434;6.788;2023-03-29T15:39:51;16.50;99.90
9103;DHT22;4587;51.434;6.788;2023-03-29T15:42:17;16.40;99.90
9103;DHT22;4587;51.434;6.788;2023-03-29T15:44:43;16.30;99.90
9103;DHT22;4587;51.434;6.788;2023-03-29T15:47:09;16.30;99.90
9103;DHT22;4587;51.434;6.788;2023-03-29T15:49:35;16.20;99.90
9103;DHT22;4587;51.434;6.788;2023-03-29T15:52:00;16.20;99.90
9103;DHT22;4587;51.434;6.788;2023-03-29T15:54:26;16.20;99.90
9103;DHT22;4587;51.434;6.788;2023-03-29T15:56:58;16.10;99.90
9103;DHT22;4587;51.434;6.788;2023-03-29T15:59:25;16.10;99.90
9103;DHT22;4587;51.434;6.788;2023-03-29T16:01:50;16.10;99.90
9103;DHT22;4587;51.434;6.788;2023-03-29T16:04:18;16.10;99.90
9103;DHT22;4587;51.434;6.788;2023-03-29T16:06:47;16.00;99.90
9103;DHT22;4587;51.434;6.788;2023-03-29T16:09:13;16.10;99.90
9103;DHT22;4587;51.434;6.788;2023-03-29T16:11:40;16.10;99.90
9103;DHT22;4587;51.434;6.788;2023-03-29T16:14:15;16.10;99.90
9103;DHT22;4587;51.434;6.788;2023-03-29T16:16:41;16.10;99.90
9103;DHT22;4587;51.434;6.788;2023-03-29T16:19:07;16.20;99.90
9103;DHT22;4587;51.434;6.788;2023-03-29T16:21:32;16.10;99.90
9103;DHT22;4587;51.434;6.788;2023-03-29T16:23:58;16.10;99.90
9103;DHT22;4587;51.434;6.788;2023-03-29T16:26:23;16.10;99.90
9103;DHT22;4587;51.434;6.788;2023-03-29T16:28:50;16.10;99.90
9103;DHT22;4587;51.434;6.788;2023-03-29T16:31:16;16.00;99.90
9103;DHT22;4587;51.434;6.788;2023-03-29T16:33:42;16.00;99.90
9103;DHT22;4587;51.434;6.788;2023-03-29T16:36:08;16.00;99.90
9103;DHT22;4587;51.434;6.788;2023-03-29T16:38:34;16.00;99.90
9103;DHT22;4587;51.434;6.788;2023-03-29T16:40:59;15.90;99.90
9103;DHT22;4587;51.434;6.788;2023-03-29T16:43:26;15.90;99.90
9103;DHT22;4587;51.434;6.788;2023-03-29T16:45:51;15.80;99.90
9103;DHT22;4587;51.434;6.788;2023-03-29T16:48:18;15.80;99.90
9103;DHT22;4587;51.434;6.788;2023-03-29T16:50:44;15.70;99.90
9103;DHT22;4587;51.434;6.788;2023-03-29T16:53:15;15.70;99.90
9103;DHT22;4587;51.434;6.788;2023-03-29T16:55:44;15.70;99.90
9103;DHT22;4587;51.434;6.788;2023-03-29T16:58:10;15.70;99.90
9103;DHT22;4587;51.434;6.788;2023-03-29T17:00:36;15.60;99.90
9103;DHT22;4587;51.434;6.788;2023-03-29T17:03:03;15.60;99.90
9103;DHT22;4587;51.434;6.788;2023-03-29T17:05:29;15.60;99.90
9103;DHT22;4587;51.434;6.788;2023-03-29T17:07:54;15.60;99.90
9103;DHT22;4587;51.434;6.788;2023-03-29T17:10:21;15.60;99.90
9103;DHT22;4587;51.434;6.788;2023-03-29T17:12:46;15.60;99.90
9103;DHT22;4587;51.434;6.788;2023-03-29T17:15:12;15.50;99.90
9103;DHT22;4587;51.434;6.788;2023-03-29T17:17:38;15.60;99.90
9103;DHT22;4587;51.434;6.788;2023-03-29T17:20:05;15.60;99.90
9103;DHT22;4587;51.434;6.788;2023-03-29T17:22:33;15.50;99.90
9103;DHT22;4587;51.434;6.788;2023-03-29T17:24:59;15.40;99.90
9103;DHT22;4587;51.434;6.788;2023-03-29T17:27:24;15.50;99.90
9103;DHT22;4587;51.434;6.788;2023-03-29T17:29:50;15.40;99.90
9103;DHT22;4587;51.434;6.788;2023-03-29T17:32:15;15.40;99.90
9103;DHT22;4587;51.434;6.788;2023-03-29T17:34:41;15.40;99.90
9103;DHT22;4587;51.434;6.788;2023-03-29T17:37:07;15.40;99.90
9103;DHT22;4587;51.434;6.788;2023-03-29T17:39:33;15.40;99.90
9103;DHT22;4587;51.434;6.788;2023-03-29T17:42:02;15.40;99.90
9103;DHT22;4587;51.434;6.788;2023-03-29T17:44:27;15.40;99.90
9103;DHT22;4587;51.434;6.788;2023-03-29T17:46:53;15.40;99.90